sensor_id;sensor_type;location;lat;lon;timestamp;P1;P2;P0
56360;PMS7003;42611;51.132;13.588;2023-04-25T00:03:02;6.2;5.4;
56360;PMS7003;42611;51.132;13.588;2023-04-25T00:08:01;6.6;5.4;
56360;PMS7003;42611;51.132;13.588;2023-04-25T00:13:01;6.7;5.3;
56360;PMS7003;42611;51.132;13.588;2023-04-25T00:18:01;5.7;4.9;
56360;PMS7003;42611;51.132;13.588;2023-04-25T00:23:02;5.9;4.8;
56360;PMS7003;42611;51.132;13.588;2023-04-25T00:28:01;6.3;5.2;
56360;PMS7003;42611;51.132;13.588;2023-04-25T00:33:01;6.2;5.6;
56360;PMS7003;42611;51.132;13.588;2023-04-25T00:38:01;6.5;6.2;
56360;PMS7003;42611;51.132;13.588;2023-04-25T00:43:01;6.2;5.9;
56360;PMS7003;42611;51.132;13.588;2023-04-25T00:48:03;6.5;6.3;
56360;PMS7003;42611;51.132;13.588;2023-04-25T00:53:01;6.0;5.8;
56360;PMS7003;42611;51.132;13.588;2023-04-25T00:58:01;6.5;6.1;
56360;PMS7003;42611;51.132;13.588;2023-04-25T01:03:04;6.9;5.7;
56360;PMS7003;42611;51.132;13.588;2023-04-25T01:08:01;7.1;5.9;
56360;PMS7003;42611;51.132;13.588;2023-04-25T01:18:01;7.6;6.2;
56360;PMS7003;42611;51.132;13.588;2023-04-25T01:23:01;7.5;5.8;
56360;PMS7003;42611;51.132;13.588;2023-04-25T01:28:01;7.2;6.2;
56360;PMS7003;42611;51.132;13.588;2023-04-25T01:33:01;8.0;6.8;
56360;PMS7003;42611;51.132;13.588;2023-04-25T01:38:01;8.3;7.4;
56360;PMS7003;42611;51.132;13.588;2023-04-25T01:43:01;8.2;7.6;
56360;PMS7003;42611;51.132;13.588;2023-04-25T01:48:02;9.1;8.4;
56360;PMS7003;42611;51.132;13.588;2023-04-25T01:53:01;10.2;9.4;
56360;PMS7003;42611;51.132;13.588;2023-04-25T01:58:02;10.6;9.8;
56360;PMS7003;42611;51.132;13.588;2023-04-25T02:03:02;10.3;9.5;
56360;PMS7003;42611;51.132;13.588;2023-04-25T02:08:01;10.6;9.8;
56360;PMS7003;42611;51.132;13.588;2023-04-25T02:13:01;10.0;9.4;
56360;PMS7003;42611;51.132;13.588;2023-04-25T02:18:01;9.2;8.7;
56360;PMS7003;42611;51.132;13.588;2023-04-25T02:23:01;8.8;8.4;
56360;PMS7003;42611;51.132;13.588;2023-04-25T02:28:01;9.6;9.0;
56360;PMS7003;42611;51.132;13.588;2023-04-25T02:33:02;10.0;9.6;
56360;PMS7003;42611;51.132;13.588;2023-04-25T02:38:01;9.6;9.2;
56360;PMS7003;42611;51.132;13.588;2023-04-25T02:48:02;10.3;10.1;
56360;PMS7003;42611;51.132;13.588;2023-04-25T02:53:01;10.6;10.3;
56360;PMS7003;42611;51.132;13.588;2023-04-25T02:58:01;12.0;11.0;
56360;PMS7003;42611;51.132;13.588;2023-04-25T03:03:02;13.0;11.8;
56360;PMS7003;42611;51.132;13.588;2023-04-25T03:08:01;13.9;12.4;
56360;PMS7003;42611;51.132;13.588;2023-04-25T03:13:01;14.1;12.3;
56360;PMS7003;42611;51.132;13.588;2023-04-25T03:19:01;13.7;12.2;
56360;PMS7003;42611;51.132;13.588;2023-04-25T03:24:04;12.6;11.2;
56360;PMS7003;42611;51.132;13.588;2023-04-25T03:29:01;12.8;11.6;
56360;PMS7003;42611;51.132;13.588;2023-04-25T03:34:01;12.3;11.3;
56360;PMS7003;42611;51.132;13.588;2023-04-25T03:39:01;11.9;11.2;
56360;PMS7003;42611;51.132;13.588;2023-04-25T03:44:01;12.7;12.0;
56360;PMS7003;42611;51.132;13.588;2023-04-25T03:49:01;12.8;12.4;
56360;PMS7003;42611;51.132;13.588;2023-04-25T03:54:01;13.0;12.4;
56360;PMS7003;42611;51.132;13.588;2023-04-25T03:59:01;13.1;12.5;
56360;PMS7003;42611;51.132;13.588;2023-04-25T04:04:02;14.1;13.1;
56360;PMS7003;42611;51.132;13.588;2023-04-25T04:09:01;13.2;12.0;
56360;PMS7003;42611;51.132;13.588;2023-04-25T04:14:02;12.8;11.7;
56360;PMS7003;42611;51.132;13.588;2023-04-25T04:19:02;13.0;12.2;
56360;PMS7003;42611;51.132;13.588;2023-04-25T04:24:01;14.6;13.3;
56360;PMS7003;42611;51.132;13.588;2023-04-25T04:34:01;15.7;14.0;
56360;PMS7003;42611;51.132;13.588;2023-04-25T04:39:01;17.4;15.5;
56360;PMS7003;42611;51.132;13.588;2023-04-25T04:44:01;17.9;15.7;
56360;PMS7003;42611;51.132;13.588;2023-04-25T04:49:01;17.6;15.6;
56360;PMS7003;42611;51.132;13.588;2023-04-25T04:54:02;18.8;16.8;
56360;PMS7003;42611;51.132;13.588;2023-04-25T04:59:01;19.3;17.7;
56360;PMS7003;42611;51.132;13.588;2023-04-25T05:04:03;18.9;17.1;
56360;PMS7003;42611;51.132;13.588;2023-04-25T05:09:01;18.4;16.7;
56360;PMS7003;42611;51.132;13.588;2023-04-25T05:14:02;17.5;16.0;
56360;PMS7003;42611;51.132;13.588;2023-04-25T05:19:02;16.2;15.1;
56360;PMS7003;42611;51.132;13.588;2023-04-25T05:24:02;15.4;14.3;
56360;PMS7003;42611;51.132;13.588;2023-04-25T05:29:01;14.9;14.2;
56360;PMS7003;42611;51.132;13.588;2023-04-25T05:34:02;14.7;14.2;
56360;PMS7003;42611;51.132;13.588;2023-04-25T05:39:01;14.6;14.0;
56360;PMS7003;42611;51.132;13.588;2023-04-25T05:44:02;14.0;13.1;
56360;PMS7003;42611;51.132;13.588;2023-04-25T05:49:01;13.6;12.8;
56360;PMS7003;42611;51.132;13.588;2023-04-25T05:54:01;13.4;12.8;
56360;PMS7003;42611;51.132;13.588;2023-04-25T05:59:01;13.2;12.4;
56360;PMS7003;42611;51.132;13.588;2023-04-25T06:04:06;12.9;12.3;
56360;PMS7003;42611;51.132;13.588;2023-04-25T06:09:01;12.5;12.3;
56360;PMS7003;42611;51.132;13.588;2023-04-25T06:14:01;12.0;11.6;
56360;PMS7003;42611;51.132;13.588;2023-04-25T06:19:01;11.5;11.2;
56360;PMS7003;42611;51.132;13.588;2023-04-25T06:24:01;11.3;11.2;
56360;PMS7003;42611;51.132;13.588;2023-04-25T06:29:02;10.8;10.6;
56360;PMS7003;42611;51.132;13.588;2023-04-25T06:35:01;11.2;10.6;
56360;PMS7003;42611;51.132;13.588;2023-04-25T06:40:01;10.7;10.3;
56360;PMS7003;42611;51.132;13.588;2023-04-25T06:45:02;10.1;9.7;
56360;PMS7003;42611;51.132;13.588;2023-04-25T06:50:01;9.8;9.2;
56360;PMS7003;42611;51.132;13.588;2023-04-25T06:55:01;9.4;8.4;
56360;PMS7003;42611;51.132;13.588;2023-04-25T07:00:04;8.5;7.8;
56360;PMS7003;42611;51.132;13.588;2023-04-25T07:05:02;8.6;7.8;
56360;PMS7003;42611;51.132;13.588;2023-04-25T07:10:02;8.7;7.8;
56360;PMS7003;42611;51.132;13.588;2023-04-25T07:16:01;8.4;7.8;
56360;PMS7003;42611;51.132;13.588;2023-04-25T07:21:01;8.7;8.4;
56360;PMS7003;42611;51.132;13.588;2023-04-25T07:26:01;8.8;8.6;
56360;PMS7003;42611;51.132;13.588;2023-04-25T07:41:01;9.0;8.4;
56360;PMS7003;42611;51.132;13.588;2023-04-25T07:46:01;8.5;8.0;
56360;PMS7003;42611;51.132;13.588;2023-04-25T07:51:01;9.3;7.9;
56360;PMS7003;42611;51.132;13.588;2023-04-25T07:56:01;9.4;7.9;
56360;PMS7003;42611;51.132;13.588;2023-04-25T08:01:02;9.1;7.5;
56360;PMS7003;42611;51.132;13.588;2023-04-25T08:06:09;8.2;7.0;
56360;PMS7003;42611;51.132;13.588;2023-04-25T08:12:03;8.3;6.6;
56360;PMS7003;42611;51.132;13.588;2023-04-25T08:17:02;7.6;6.9;
56360;PMS7003;42611;51.132;13.588;2023-04-25T08:22:01;7.7;7.0;
56360;PMS7003;42611;51.132;13.588;2023-04-25T08:27:01;8.5;7.8;
56360;PMS7003;42611;51.132;13.588;2023-04-25T08:32:01;9.0;8.3;
56360;PMS7003;42611;51.132;13.588;2023-04-25T08:37:01;10.5;9.9;
56360;PMS7003;42611;51.132;13.588;2023-04-25T08:42:02;10.9;10.1;
56360;PMS7003;42611;51.132;13.588;2023-04-25T08:47:02;11.0;10.0;
56360;PMS7003;42611;51.132;13.588;2023-04-25T08:52:02;11.3;10.2;
56360;PMS7003;42611;51.132;13.588;2023-04-25T08:57:01;12.6;11.4;
56360;PMS7003;42611;51.132;13.588;2023-04-25T09:02:01;11.8;11.0;
56360;PMS7003;42611;51.132;13.588;2023-04-25T09:07:02;12.2;11.3;
56360;PMS7003;42611;51.132;13.588;2023-04-25T09:12:01;12.8;12.4;
56360;PMS7003;42611;51.132;13.588;2023-04-25T09:17:03;12.6;11.8;
56360;PMS7003;42611;51.132;13.588;2023-04-25T09:22:03;12.0;11.2;
56360;PMS7003;42611;51.132;13.588;2023-04-25T09:32:18;11.0;10.4;
56360;PMS7003;42611;51.132;13.588;2023-04-25T09:37:01;10.0;9.4;
56360;PMS7003;42611;51.132;13.588;2023-04-25T09:42:02;8.8;8.6;
56360;PMS7003;42611;51.132;13.588;2023-04-25T09:47:02;8.6;7.8;
56360;PMS7003;42611;51.132;13.588;2023-04-25T09:52:02;8.0;7.2;
56360;PMS7003;42611;51.132;13.588;2023-04-25T09:57:09;8.1;7.3;
56360;PMS7003;42611;51.132;13.588;2023-04-25T10:02:01;7.9;7.2;
56360;PMS7003;42611;51.132;13.588;2023-04-25T10:07:03;8.7;7.9;
56360;PMS7003;42611;51.132;13.588;2023-04-25T10:12:02;8.0;8.0;
56360;PMS7003;42611;51.132;13.588;2023-04-25T10:17:02;8.6;8.4;
56360;PMS7003;42611;51.132;13.588;2023-04-25T10:22:03;9.2;8.8;
56360;PMS7003;42611;51.132;13.588;2023-04-25T10:27:02;10.6;10.2;
56360;PMS7003;42611;51.132;13.588;2023-04-25T10:32:02;11.5;10.6;
56360;PMS7003;42611;51.132;13.588;2023-04-25T10:37:02;13.1;12.1;
56360;PMS7003;42611;51.132;13.588;2023-04-25T10:42:03;13.3;12.4;
56360;PMS7003;42611;51.132;13.588;2023-04-25T10:52:18;13.4;12.1;
56360;PMS7003;42611;51.132;13.588;2023-04-25T10:57:01;13.8;12.9;
56360;PMS7003;42611;51.132;13.588;2023-04-25T11:02:01;13.0;12.0;
56360;PMS7003;42611;51.132;13.588;2023-04-25T11:08:13;12.6;11.7;
56360;PMS7003;42611;51.132;13.588;2023-04-25T11:12:02;11.9;11.0;
56360;PMS7003;42611;51.132;13.588;2023-04-25T11:17:01;11.2;10.3;
56360;PMS7003;42611;51.132;13.588;2023-04-25T11:22:02;9.0;8.2;
56360;PMS7003;42611;51.132;13.588;2023-04-25T11:27:01;7.5;6.8;
56360;PMS7003;42611;51.132;13.588;2023-04-25T11:32:01;6.3;5.6;
56360;PMS7003;42611;51.132;13.588;2023-04-25T11:37:01;5.4;4.8;
56360;PMS7003;42611;51.132;13.588;2023-04-25T11:42:06;4.2;3.9;
56360;PMS7003;42611;51.132;13.588;2023-04-25T11:47:01;3.9;3.6;
56360;PMS7003;42611;51.132;13.588;2023-04-25T11:52:02;4.0;3.6;
56360;PMS7003;42611;51.132;13.588;2023-04-25T12:07:01;4.2;3.8;
56360;PMS7003;42611;51.132;13.588;2023-04-25T12:12:02;4.7;4.4;
56360;PMS7003;42611;51.132;13.588;2023-04-25T12:17:03;5.8;5.6;
56360;PMS7003;42611;51.132;13.588;2023-04-25T12:22:01;6.2;6.0;
56360;PMS7003;42611;51.132;13.588;2023-04-25T12:27:03;7.6;7.2;
56360;PMS7003;42611;51.132;13.588;2023-04-25T12:32:02;8.1;7.5;
56360;PMS7003;42611;51.132;13.588;2023-04-25T12:37:02;8.2;7.4;
56360;PMS7003;42611;51.132;13.588;2023-04-25T12:42:02;8.6;7.2;
56360;PMS7003;42611;51.132;13.588;2023-04-25T12:47:02;8.8;7.4;
56360;PMS7003;42611;51.132;13.588;2023-04-25T12:52:02;8.4;7.4;
56360;PMS7003;42611;51.132;13.588;2023-04-25T12:57:01;8.5;7.5;
56360;PMS7003;42611;51.132;13.588;2023-04-25T13:02:02;9.2;8.0;
56360;PMS7003;42611;51.132;13.588;2023-04-25T13:12:03;10.4;9.2;
56360;PMS7003;42611;51.132;13.588;2023-04-25T13:17:04;10.5;9.2;
56360;PMS7003;42611;51.132;13.588;2023-04-25T13:22:03;10.3;9.0;
56360;PMS7003;42611;51.132;13.588;2023-04-25T13:27:01;9.8;9.0;
56360;PMS7003;42611;51.132;13.588;2023-04-25T13:32:01;10.3;9.0;
56360;PMS7003;42611;51.132;13.588;2023-04-25T13:37:02;10.2;8.7;
56360;PMS7003;42611;51.132;13.588;2023-04-25T13:42:02;10.4;8.6;
56360;PMS7003;42611;51.132;13.588;2023-04-25T13:47:02;10.5;8.7;
56360;PMS7003;42611;51.132;13.588;2023-04-25T13:52:03;10.7;8.9;
56360;PMS7003;42611;51.132;13.588;2023-04-25T13:57:01;10.0;9.0;
56360;PMS7003;42611;51.132;13.588;2023-04-25T14:02:01;9.3;8.5;
56360;PMS7003;42611;51.132;13.588;2023-04-25T14:07:02;9.6;9.1;
56360;PMS7003;42611;51.132;13.588;2023-04-25T14:13:02;10.1;9.5;
56360;PMS7003;42611;51.132;13.588;2023-04-25T14:23:01;10.4;9.6;
56360;PMS7003;42611;51.132;13.588;2023-04-25T14:28:04;10.6;9.5;
56360;PMS7003;42611;51.132;13.588;2023-04-25T14:33:04;10.3;9.0;
56360;PMS7003;42611;51.132;13.588;2023-04-25T14:38:01;10.2;8.9;
56360;PMS7003;42611;51.132;13.588;2023-04-25T14:43:02;10.7;8.5;
56360;PMS7003;42611;51.132;13.588;2023-04-25T14:48:01;9.8;7.3;
56360;PMS7003;42611;51.132;13.588;2023-04-25T14:53:01;9.0;7.1;
56360;PMS7003;42611;51.132;13.588;2023-04-25T14:58:01;8.3;6.7;
56360;PMS7003;42611;51.132;13.588;2023-04-25T15:03:02;7.0;5.7;
56360;PMS7003;42611;51.132;13.588;2023-04-25T15:08:01;6.1;5.0;
56360;PMS7003;42611;51.132;13.588;2023-04-25T15:13:02;5.4;4.6;
56360;PMS7003;42611;51.132;13.588;2023-04-25T15:18:01;5.2;4.4;
56360;PMS7003;42611;51.132;13.588;2023-04-25T15:23:01;4.6;3.8;
56360;PMS7003;42611;51.132;13.588;2023-04-25T15:28:01;4.2;3.4;
56360;PMS7003;42611;51.132;13.588;2023-04-25T15:33:01;3.5;3.0;
56360;PMS7003;42611;51.132;13.588;2023-04-25T15:38:01;3.7;3.3;
56360;PMS7003;42611;51.132;13.588;2023-04-25T15:43:01;3.4;3.0;
56360;PMS7003;42611;51.132;13.588;2023-04-25T15:48:01;3.9;3.5;
56360;PMS7003;42611;51.132;13.588;2023-04-25T15:53:01;4.6;3.8;
56360;PMS7003;42611;51.132;13.588;2023-04-25T15:58:01;4.8;4.1;
56360;PMS7003;42611;51.132;13.588;2023-04-25T16:03:02;4.6;3.8;
56360;PMS7003;42611;51.132;13.588;2023-04-25T16:08:01;5.1;4.0;
56360;PMS7003;42611;51.132;13.588;2023-04-25T16:13:01;5.0;3.9;
56360;PMS7003;42611;51.132;13.588;2023-04-25T16:18:01;4.7;3.9;
56360;PMS7003;42611;51.132;13.588;2023-04-25T16:23:01;4.5;3.9;
56360;PMS7003;42611;51.132;13.588;2023-04-25T16:28:01;4.6;4.0;
56360;PMS7003;42611;51.132;13.588;2023-04-25T16:33:01;4.1;3.8;
56360;PMS7003;42611;51.132;13.588;2023-04-25T16:38:01;3.7;3.4;
56360;PMS7003;42611;51.132;13.588;2023-04-25T16:43:01;3.8;3.5;
56360;PMS7003;42611;51.132;13.588;2023-04-25T16:48:01;4.0;3.8;
56360;PMS7003;42611;51.132;13.588;2023-04-25T16:53:01;4.1;3.9;
56360;PMS7003;42611;51.132;13.588;2023-04-25T16:58:01;4.5;4.3;
56360;PMS7003;42611;51.132;13.588;2023-04-25T17:03:02;5.0;4.7;
56360;PMS7003;42611;51.132;13.588;2023-04-25T17:08:01;4.9;4.6;
56360;PMS7003;42611;51.132;13.588;2023-04-25T17:13:01;4.8;4.6;
56360;PMS7003;42611;51.132;13.588;2023-04-25T17:18:01;5.2;4.8;
56360;PMS7003;42611;51.132;13.588;2023-04-25T17:28:01;4.7;4.4;
56360;PMS7003;42611;51.132;13.588;2023-04-25T17:33:01;5.0;4.7;
56360;PMS7003;42611;51.132;13.588;2023-04-25T17:43:01;4.7;4.7;
56360;PMS7003;42611;51.132;13.588;2023-04-25T17:48:02;4.4;4.4;
56360;PMS7003;42611;51.132;13.588;2023-04-25T17:53:01;4.5;4.5;
56360;PMS7003;42611;51.132;13.588;2023-04-25T17:58:01;4.3;4.2;
56360;PMS7003;42611;51.132;13.588;2023-04-25T18:03:02;4.5;4.0;
56360;PMS7003;42611;51.132;13.588;2023-04-25T18:13:01;4.7;4.2;
56360;PMS7003;42611;51.132;13.588;2023-04-25T18:18:01;4.4;3.9;
56360;PMS7003;42611;51.132;13.588;2023-04-25T18:23:01;4.1;3.7;
56360;PMS7003;42611;51.132;13.588;2023-04-25T18:28:01;4.2;4.0;
56360;PMS7003;42611;51.132;13.588;2023-04-25T18:43:01;4.9;4.6;
56360;PMS7003;42611;51.132;13.588;2023-04-25T18:48:03;5.4;5.1;
56360;PMS7003;42611;51.132;13.588;2023-04-25T18:53:01;5.1;5.0;
56360;PMS7003;42611;51.132;13.588;2023-04-25T18:58:01;5.4;5.2;
56360;PMS7003;42611;51.132;13.588;2023-04-25T19:03:03;5.3;4.8;
56360;PMS7003;42611;51.132;13.588;2023-04-25T19:08:01;5.1;4.4;
56360;PMS7003;42611;51.132;13.588;2023-04-25T19:18:01;5.0;4.0;
56360;PMS7003;42611;51.132;13.588;2023-04-25T19:23:02;4.4;3.5;
56360;PMS7003;42611;51.132;13.588;2023-04-25T19:28:01;4.0;3.5;
56360;PMS7003;42611;51.132;13.588;2023-04-25T19:33:01;4.4;3.7;
56360;PMS7003;42611;51.132;13.588;2023-04-25T19:38:02;3.9;3.2;
56360;PMS7003;42611;51.132;13.588;2023-04-25T19:43:03;3.8;3.3;
56360;PMS7003;42611;51.132;13.588;2023-04-25T19:48:02;4.2;3.6;
56360;PMS7003;42611;51.132;13.588;2023-04-25T19:53:01;4.7;4.0;
56360;PMS7003;42611;51.132;13.588;2023-04-25T19:58:01;4.5;4.3;
56360;PMS7003;42611;51.132;13.588;2023-04-25T20:03:07;5.0;4.6;
56360;PMS7003;42611;51.132;13.588;2023-04-25T20:08:01;4.9;4.6;
56360;PMS7003;42611;51.132;13.588;2023-04-25T20:13:29;5.2;4.5;
56360;PMS7003;42611;51.132;13.588;2023-04-25T20:18:01;5.0;4.5;
56360;PMS7003;42611;51.132;13.588;2023-04-25T20:23:01;4.6;4.2;
56360;PMS7003;42611;51.132;13.588;2023-04-25T20:28:01;4.8;4.4;
56360;PMS7003;42611;51.132;13.588;2023-04-25T20:33:01;4.6;4.2;
56360;PMS7003;42611;51.132;13.588;2023-04-25T20:38:01;4.2;3.9;
56360;PMS7003;42611;51.132;13.588;2023-04-25T20:43:04;4.0;3.6;
56360;PMS7003;42611;51.132;13.588;2023-04-25T20:48:02;3.9;3.5;
56360;PMS7003;42611;51.132;13.588;2023-04-25T20:53:01;3.1;2.9;
56360;PMS7003;42611;51.132;13.588;2023-04-25T20:58:01;3.2;2.9;
56360;PMS7003;42611;51.132;13.588;2023-04-25T21:03:02;3.4;3.2;
56360;PMS7003;42611;51.132;13.588;2023-04-25T21:08:01;3.2;3.1;
56360;PMS7003;42611;51.132;13.588;2023-04-25T21:13:02;3.3;3.1;
56360;PMS7003;42611;51.132;13.588;2023-04-25T21:18:01;3.5;3.3;
56360;PMS7003;42611;51.132;13.588;2023-04-25T21:23:01;3.3;3.1;
56360;PMS7003;42611;51.132;13.588;2023-04-25T21:28:01;3.1;2.9;
56360;PMS7003;42611;51.132;13.588;2023-04-25T21:33:01;3.2;3.1;
56360;PMS7003;42611;51.132;13.588;2023-04-25T21:38:01;3.0;2.9;
56360;PMS7003;42611;51.132;13.588;2023-04-25T21:48:01;3.2;3.1;
56360;PMS7003;42611;51.132;13.588;2023-04-25T21:53:01;2.8;2.8;
56360;PMS7003;42611;51.132;13.588;2023-04-25T21:58:01;2.5;2.5;
56360;PMS7003;42611;51.132;13.588;2023-04-25T22:03:02;2.6;2.5;
56360;PMS7003;42611;51.132;13.588;2023-04-25T22:08:01;2.4;2.3;
56360;PMS7003;42611;51.132;13.588;2023-04-25T22:13:02;2.0;1.8;
56360;PMS7003;42611;51.132;13.588;2023-04-25T22:18:01;3.0;2.4;
56360;PMS7003;42611;51.132;13.588;2023-04-25T22:23:01;2.9;2.3;
56360;PMS7003;42611;51.132;13.588;2023-04-25T22:28:01;3.0;2.5;
56360;PMS7003;42611;51.132;13.588;2023-04-25T22:33:01;3.4;2.9;
56360;PMS7003;42611;51.132;13.588;2023-04-25T22:38:01;3.9;3.4;
56360;PMS7003;42611;51.132;13.588;2023-04-25T22:43:01;3.0;2.9;
56360;PMS7003;42611;51.132;13.588;2023-04-25T22:53:03;3.1;3.1;
56360;PMS7003;42611;51.132;13.588;2023-04-25T22:58:02;3.2;3.2;
56360;PMS7003;42611;51.132;13.588;2023-04-25T23:08:01;3.4;3.4;
56360;PMS7003;42611;51.132;13.588;2023-04-25T23:13:01;4.4;3.8;
56360;PMS7003;42611;51.132;13.588;2023-04-25T23:23:01;4.7;3.9;
56360;PMS7003;42611;51.132;13.588;2023-04-25T23:28:01;5.1;3.9;
56360;PMS7003;42611;51.132;13.588;2023-04-25T23:33:01;5.2;4.0;
56360;PMS7003;42611;51.132;13.588;2023-04-25T23:38:01;4.7;4.1;
56360;PMS7003;42611;51.132;13.588;2023-04-25T23:48:01;4.6;4.1;
56360;PMS7003;42611;51.132;13.588;2023-04-25T23:53:02;4.4;4.2;
56360;PMS7003;42611;51.132;13.588;2023-04-25T23:58:01;4.9;4.5;
